createdAt,value
2022-08-30T00:00:52.726Z,6.71
2022-08-30T00:01:56.522Z,6.00
2022-08-30T00:02:59.791Z,6.00
2022-08-30T00:04:03.056Z,4.71
2022-08-30T00:05:06.275Z,4.86
2022-08-30T00:06:09.564Z,6.43
2022-08-30T00:07:12.800Z,5.57
2022-08-30T00:08:15.939Z,5.86
2022-08-30T00:09:19.214Z,6.00
2022-08-30T00:10:22.494Z,6.00
2022-08-30T00:11:25.528Z,5.00
2022-08-30T00:12:28.753Z,5.57
2022-08-30T00:13:32.038Z,6.29
2022-08-30T00:14:35.219Z,6.00
2022-08-30T00:15:38.477Z,5.86
2022-08-30T00:16:41.791Z,5.86
2022-08-30T00:17:45.004Z,5.43
2022-08-30T00:18:48.168Z,6.43
2022-08-30T00:19:51.434Z,6.86
2022-08-30T00:20:54.619Z,8.33
2022-08-30T00:21:58.618Z,8.13
2022-08-30T00:23:02.003Z,7.14
2022-08-30T00:24:05.287Z,6.43
2022-08-30T00:25:08.438Z,7.00
2022-08-30T00:26:11.546Z,7.00
2022-08-30T00:27:14.738Z,7.71
2022-08-30T00:28:17.913Z,7.71
2022-08-30T00:29:21.301Z,7.57
2022-08-30T00:30:24.686Z,7.43
2022-08-30T00:31:27.934Z,7.00
2022-08-30T00:32:31.158Z,7.00
2022-08-30T00:33:34.340Z,7.00
2022-08-30T00:34:37.616Z,7.14
2022-08-30T00:35:40.797Z,8.00
2022-08-30T00:36:44.083Z,7.57
2022-08-30T00:37:47.378Z,7.00
2022-08-30T00:38:50.550Z,6.57
2022-08-30T00:39:53.736Z,5.14
2022-08-30T00:40:56.895Z,5.29
2022-08-30T00:42:00.198Z,6.43
2022-08-30T00:43:05.609Z,7.00
2022-08-30T00:44:07.798Z,6.50
2022-08-30T00:45:10.984Z,5.33
2022-08-30T00:46:14.187Z,5.67
2022-08-30T00:47:17.439Z,5.83
2022-08-30T00:48:20.622Z,6.86
2022-08-30T00:49:23.908Z,8.57
2022-08-30T00:50:27.188Z,8.57
2022-08-30T00:51:30.373Z,8.29
2022-08-30T00:52:33.552Z,7.57
2022-08-30T00:53:36.849Z,6.57
2022-08-30T00:54:40.019Z,6.86
2022-08-30T00:55:44.294Z,6.71
2022-08-30T00:56:48.024Z,6.50
2022-08-30T00:57:51.609Z,7.14
2022-08-30T00:58:55.079Z,5.86
2022-08-30T00:59:58.136Z,6.00
2022-08-30T01:01:01.470Z,5.67
2022-08-30T01:02:04.803Z,5.57
2022-08-30T01:03:08.343Z,6.29
2022-08-30T01:04:11.624Z,7.14
2022-08-30T01:05:15.986Z,5.57
2022-08-30T01:06:19.320Z,6.00
2022-08-30T01:07:22.827Z,6.14
2022-08-30T01:08:26.198Z,5.00
2022-08-30T01:09:29.688Z,5.00
2022-08-30T01:10:33.286Z,4.71
2022-08-30T01:11:36.767Z,5.29
2022-08-30T01:12:40.050Z,6.14
2022-08-30T01:13:43.300Z,6.14
2022-08-30T01:14:46.516Z,5.00
2022-08-30T01:15:49.972Z,6.00
2022-08-30T01:16:53.390Z,5.86
2022-08-30T01:17:57.907Z,6.37
2022-08-30T01:19:01.386Z,6.57
2022-08-30T01:20:04.680Z,6.29
2022-08-30T01:21:08.280Z,6.71
2022-08-30T01:22:11.655Z,5.14
2022-08-30T01:23:15.132Z,4.57
2022-08-30T01:24:19.145Z,4.71
2022-08-30T01:25:22.528Z,5.83
2022-08-30T01:26:25.931Z,6.14
2022-08-30T01:27:29.206Z,6.00
2022-08-30T01:28:32.691Z,5.57
2022-08-30T01:29:36.086Z,5.00
2022-08-30T01:30:39.580Z,6.86
2022-08-30T01:31:43.158Z,7.86
2022-08-30T01:32:46.548Z,7.00
2022-08-30T01:33:49.730Z,5.14
2022-08-30T01:34:53.008Z,5.33
2022-08-30T01:35:56.277Z,6.00
2022-08-30T01:36:59.366Z,7.17
2022-08-30T01:38:02.630Z,7.67
2022-08-30T01:39:05.841Z,6.14
2022-08-30T01:40:09.162Z,5.00
2022-08-30T01:41:12.310Z,5.43
2022-08-30T01:42:15.588Z,6.50
2022-08-30T01:43:18.876Z,5.67
2022-08-30T01:44:22.154Z,7.14
2022-08-30T01:45:25.446Z,8.29
2022-08-30T01:46:28.675Z,7.57
2022-08-30T01:47:31.911Z,5.14
2022-08-30T01:48:35.090Z,5.43
2022-08-30T01:49:38.682Z,6.43
2022-08-30T01:50:42.072Z,7.43
2022-08-30T01:51:45.433Z,7.43
2022-08-30T01:52:48.704Z,7.67
2022-08-30T01:53:52.538Z,7.00
2022-08-30T01:54:56.025Z,7.00
2022-08-30T01:55:59.615Z,6.75
2022-08-30T01:57:03.206Z,7.00
2022-08-30T01:58:06.489Z,7.00
2022-08-30T01:59:09.775Z,6.00
2022-08-30T02:00:12.967Z,6.00
2022-08-30T02:01:16.380Z,6.17
2022-08-30T02:02:19.725Z,5.86
2022-08-30T02:03:23.249Z,5.86
2022-08-30T02:04:26.710Z,5.14
2022-08-30T02:05:30.297Z,6.62
2022-08-30T02:06:33.702Z,8.00
2022-08-30T02:07:37.279Z,8.57
2022-08-30T02:08:40.768Z,7.50
2022-08-30T02:09:44.256Z,6.43
2022-08-30T02:10:48.870Z,7.50
2022-08-30T02:11:52.467Z,6.57
2022-08-30T02:12:55.950Z,6.00
2022-08-30T02:13:59.541Z,5.83
2022-08-30T02:15:02.928Z,6.00
2022-08-30T02:16:06.113Z,5.71
2022-08-30T02:17:09.599Z,7.14
2022-08-30T02:18:12.881Z,7.86
2022-08-30T02:19:16.269Z,7.57
2022-08-30T02:20:19.569Z,6.71
2022-08-30T02:21:26.324Z,5.86
2022-08-30T02:22:29.913Z,7.50
2022-08-30T02:23:33.809Z,7.14
2022-08-30T02:24:37.292Z,6.29
2022-08-30T02:25:41.093Z,7.43
2022-08-30T02:26:44.688Z,7.00
2022-08-30T02:27:48.425Z,7.00
2022-08-30T02:28:51.985Z,7.14
2022-08-30T02:29:55.340Z,6.14
2022-08-30T02:30:58.654Z,7.29
2022-08-30T02:32:01.924Z,6.86
2022-08-30T02:33:05.516Z,7.43
2022-08-30T02:34:08.906Z,8.00
2022-08-30T02:35:12.394Z,8.43
2022-08-30T02:36:15.676Z,8.43
2022-08-30T02:37:19.064Z,6.86
2022-08-30T02:38:22.196Z,6.43
2022-08-30T02:39:25.220Z,7.00
2022-08-30T02:40:28.546Z,6.17
2022-08-30T02:41:31.996Z,5.57
2022-08-30T02:42:35.486Z,6.86
2022-08-30T02:43:38.767Z,6.00
2022-08-30T02:44:41.949Z,6.43
2022-08-30T02:45:45.386Z,7.00
2022-08-30T02:46:48.620Z,6.57
2022-08-30T02:47:51.910Z,7.67
2022-08-30T02:48:55.200Z,7.00
2022-08-30T02:49:58.475Z,7.00
2022-08-30T02:51:02.063Z,6.57
2022-08-30T02:52:05.456Z,6.29
2022-08-30T02:53:08.756Z,7.43
2022-08-30T02:54:12.947Z,7.50
2022-08-30T02:55:16.222Z,6.50
2022-08-30T02:56:19.510Z,7.33
2022-08-30T02:57:22.710Z,7.00
2022-08-30T02:58:26.080Z,6.00
2022-08-30T02:59:29.370Z,7.71
2022-08-30T03:00:33.245Z,7.86
2022-08-30T03:01:37.106Z,6.50
2022-08-30T03:02:40.453Z,7.86
2022-08-30T03:03:43.884Z,6.71
2022-08-30T03:04:47.321Z,6.57
2022-08-30T03:05:50.706Z,7.57
2022-08-30T03:06:54.301Z,8.57
2022-08-30T03:07:57.889Z,7.43
2022-08-30T03:09:01.493Z,6.71
2022-08-30T03:10:04.778Z,6.50
2022-08-30T03:11:08.493Z,7.43
2022-08-30T03:12:11.858Z,7.57
2022-08-30T03:13:15.079Z,7.00
2022-08-30T03:14:18.425Z,7.33
2022-08-30T03:15:21.607Z,7.43
2022-08-30T03:16:24.889Z,6.17
2022-08-30T03:17:28.058Z,6.00
2022-08-30T03:18:31.346Z,6.83
2022-08-30T03:19:34.504Z,6.17
2022-08-30T03:20:37.706Z,6.67
2022-08-30T03:21:40.898Z,6.29
2022-08-30T03:22:44.173Z,6.67
2022-08-30T03:23:47.363Z,6.57
2022-08-30T03:24:50.539Z,6.50
2022-08-30T03:25:53.824Z,7.14
2022-08-30T03:26:57.208Z,5.57
2022-08-30T03:28:00.695Z,4.57
2022-08-30T03:29:04.185Z,5.43
2022-08-30T03:30:07.322Z,6.43
2022-08-30T03:31:10.762Z,5.57
2022-08-30T03:32:13.892Z,4.86
2022-08-30T03:33:18.489Z,5.71
2022-08-30T03:34:21.233Z,6.75
2022-08-30T03:35:24.612Z,6.00
2022-08-30T03:36:28.314Z,5.14
2022-08-30T03:37:31.589Z,5.00
2022-08-30T03:38:35.188Z,5.57
2022-08-30T03:39:38.586Z,6.14
2022-08-30T03:40:42.226Z,6.71
2022-08-30T03:41:45.749Z,7.86
2022-08-30T03:42:49.341Z,6.14
2022-08-30T03:43:52.827Z,5.14
2022-08-30T03:44:57.447Z,5.50
2022-08-30T03:46:00.957Z,5.37
2022-08-30T03:47:04.321Z,4.43
2022-08-30T03:48:07.359Z,5.14
2022-08-30T03:49:10.783Z,6.43
2022-08-30T03:50:14.197Z,6.86
2022-08-30T03:51:17.463Z,6.43
2022-08-30T03:52:20.640Z,5.43
2022-08-30T03:53:26.984Z,5.00
2022-08-30T03:54:28.640Z,5.50
2022-08-30T03:55:31.991Z,5.57
2022-08-30T03:56:35.321Z,5.43
2022-08-30T03:57:38.697Z,4.71
2022-08-30T03:58:43.318Z,4.00
2022-08-30T03:59:47.006Z,5.50
2022-08-30T04:00:50.751Z,6.14
2022-08-30T04:01:54.671Z,4.14
2022-08-30T04:02:58.088Z,2.57
2022-08-30T04:04:01.479Z,4.29
2022-08-30T04:05:06.298Z,5.00
2022-08-30T04:06:09.535Z,4.00
2022-08-30T04:07:13.193Z,3.86
2022-08-30T04:08:16.252Z,3.57
2022-08-30T04:09:19.431Z,4.57
2022-08-30T04:10:22.610Z,5.43
2022-08-30T04:11:25.902Z,5.14
2022-08-30T04:12:29.285Z,4.00
2022-08-30T04:13:32.482Z,4.57
2022-08-30T04:14:35.648Z,5.57
2022-08-30T04:15:38.828Z,4.71
2022-08-30T04:16:42.085Z,5.67
2022-08-30T04:17:45.306Z,5.00
2022-08-30T04:18:48.412Z,5.50
2022-08-30T04:19:51.563Z,4.50
2022-08-30T04:20:54.841Z,2.67
2022-08-30T04:21:58.031Z,4.00
2022-08-30T04:23:01.508Z,4.00
2022-08-30T04:24:04.688Z,5.00
2022-08-30T04:25:08.181Z,4.57
2022-08-30T04:26:12.492Z,3.25
2022-08-30T04:27:15.778Z,3.86
2022-08-30T04:28:18.986Z,4.57
2022-08-30T04:29:22.144Z,4.43
2022-08-30T04:30:25.628Z,4.71
2022-08-30T04:31:29.128Z,4.43
2022-08-30T04:32:32.708Z,4.57
2022-08-30T04:33:36.504Z,4.00
2022-08-30T04:34:40.921Z,4.50
2022-08-30T04:35:44.505Z,5.43
2022-08-30T04:36:48.199Z,5.57
2022-08-30T04:37:51.903Z,5.00
2022-08-30T04:38:54.987Z,4.57
2022-08-30T04:39:58.246Z,3.67
2022-08-30T04:41:01.543Z,4.67
2022-08-30T04:42:04.721Z,3.57
2022-08-30T04:43:08.005Z,3.00
2022-08-30T04:44:19.202Z,2.86
2022-08-30T04:45:15.604Z,4.37
2022-08-30T04:46:18.751Z,4.57
2022-08-30T04:47:21.850Z,4.00
2022-08-30T04:48:25.039Z,4.43
2022-08-30T04:49:28.431Z,4.57
2022-08-30T04:50:31.715Z,4.14
2022-08-30T04:51:34.896Z,4.71
2022-08-30T04:52:37.929Z,5.29
2022-08-30T04:53:41.359Z,5.00
2022-08-30T04:54:44.706Z,4.00
2022-08-30T04:55:48.029Z,4.43
2022-08-30T04:56:51.540Z,4.57
2022-08-30T04:57:55.211Z,4.00
2022-08-30T04:58:58.599Z,3.71
2022-08-30T05:00:01.942Z,4.43
2022-08-30T05:01:05.415Z,4.57
2022-08-30T05:02:10.280Z,4.00
2022-08-30T05:03:13.223Z,4.00
2022-08-30T05:04:16.353Z,4.00
2022-08-30T05:05:19.649Z,3.71
2022-08-30T05:06:22.718Z,3.43
2022-08-30T05:07:26.315Z,3.86
2022-08-30T05:08:30.522Z,4.00
2022-08-30T05:09:34.115Z,3.57
2022-08-30T05:10:37.603Z,3.43
2022-08-30T05:11:41.096Z,3.71
2022-08-30T05:12:44.676Z,3.62
2022-08-30T05:13:48.579Z,3.57
2022-08-30T05:14:51.895Z,3.62
2022-08-30T05:15:55.450Z,4.57
2022-08-30T05:16:58.835Z,3.57
2022-08-30T05:18:02.248Z,3.43
2022-08-30T05:19:05.914Z,3.25
2022-08-30T05:20:09.097Z,3.57
2022-08-30T05:21:12.706Z,4.43
2022-08-30T05:22:15.972Z,4.14
2022-08-30T05:23:19.360Z,3.33
2022-08-30T05:24:22.543Z,3.29
2022-08-30T05:25:25.931Z,3.00
2022-08-30T05:26:29.522Z,3.86
2022-08-30T05:27:33.007Z,4.00
2022-08-30T05:28:37.537Z,3.75
2022-08-30T05:29:41.215Z,4.14
2022-08-30T05:30:45.012Z,4.12
2022-08-30T05:31:48.639Z,3.57
2022-08-30T05:32:52.091Z,3.87
2022-08-30T05:33:55.592Z,3.43
2022-08-30T05:34:59.072Z,4.43
2022-08-30T05:36:02.557Z,4.50
2022-08-30T05:37:05.944Z,4.14
2022-08-30T05:38:09.146Z,3.57
2022-08-30T05:39:13.333Z,3.12
2022-08-30T05:40:16.678Z,4.00
2022-08-30T05:41:19.908Z,3.57
2022-08-30T05:42:23.391Z,4.00
2022-08-30T05:43:26.790Z,4.00
2022-08-30T05:44:30.936Z,4.12
2022-08-30T05:45:34.271Z,3.57
2022-08-30T05:46:37.447Z,4.86
2022-08-30T05:47:40.841Z,4.71
2022-08-30T05:48:44.042Z,5.00
2022-08-30T05:49:47.099Z,3.86
2022-08-30T05:50:50.583Z,4.14
2022-08-30T05:51:54.046Z,4.29
2022-08-30T05:52:57.462Z,3.00
2022-08-30T05:54:00.858Z,3.33
2022-08-30T05:55:04.450Z,4.43
2022-08-30T05:56:07.482Z,4.71
2022-08-30T05:57:10.686Z,4.00
2022-08-30T05:58:13.881Z,4.00
2022-08-30T05:59:17.095Z,3.71
2022-08-30T06:00:20.244Z,4.00
2022-08-30T06:01:23.638Z,3.86
2022-08-30T06:02:26.814Z,3.71
2022-08-30T06:03:30.407Z,3.71
2022-08-30T06:04:33.900Z,4.00
2022-08-30T06:05:37.536Z,3.57
2022-08-30T06:06:42.203Z,3.50
2022-08-30T06:07:45.697Z,4.37
2022-08-30T06:08:48.979Z,4.57
2022-08-30T06:09:52.363Z,4.43
2022-08-30T06:10:55.855Z,4.86
2022-08-30T06:11:59.754Z,4.57
2022-08-30T06:13:03.240Z,4.00
2022-08-30T06:14:06.425Z,4.00
2022-08-30T06:15:09.812Z,3.50
2022-08-30T06:16:12.985Z,4.00
2022-08-30T06:17:16.480Z,4.00
2022-08-30T06:18:19.716Z,4.71
2022-08-30T06:19:24.187Z,5.00
2022-08-30T06:20:27.663Z,5.00
2022-08-30T06:21:31.258Z,5.00
2022-08-30T06:22:34.841Z,4.57
2022-08-30T06:23:38.232Z,4.43
2022-08-30T06:24:57.009Z,4.00
2022-08-30T06:25:46.234Z,4.25
2022-08-30T06:26:49.580Z,4.71
2022-08-30T06:27:56.473Z,5.00
2022-08-30T06:28:58.545Z,4.37
2022-08-30T06:30:01.892Z,3.29
2022-08-30T06:31:05.602Z,3.71
2022-08-30T06:32:08.810Z,4.50
2022-08-30T06:33:12.088Z,4.57
2022-08-30T06:34:15.270Z,4.14
2022-08-30T06:35:18.456Z,4.57
2022-08-30T06:36:21.610Z,3.86
2022-08-30T06:37:29.440Z,3.33
2022-08-30T06:38:29.128Z,2.25
2022-08-30T06:39:32.434Z,3.43
2022-08-30T06:40:35.653Z,4.00
2022-08-30T06:41:38.885Z,5.00
2022-08-30T06:42:42.160Z,4.29
2022-08-30T06:43:48.837Z,4.43
2022-08-30T06:44:49.649Z,5.00
2022-08-30T06:45:53.959Z,4.87
2022-08-30T06:46:57.197Z,4.43
2022-08-30T06:48:00.429Z,3.86
2022-08-30T06:49:03.622Z,4.00
2022-08-30T06:50:06.990Z,3.43
2022-08-30T06:51:11.404Z,3.50
2022-08-30T06:52:14.705Z,4.29
2022-08-30T06:53:17.979Z,4.29
2022-08-30T06:54:21.261Z,5.14
2022-08-30T06:55:24.336Z,5.43
2022-08-30T06:56:27.684Z,4.43
2022-08-30T06:57:31.111Z,3.43
2022-08-30T06:58:34.497Z,4.43
2022-08-30T06:59:37.782Z,3.86
2022-08-30T07:00:41.279Z,4.29
2022-08-30T07:01:44.634Z,3.00
2022-08-30T07:02:47.953Z,4.00
2022-08-30T07:03:51.203Z,4.33
2022-08-30T07:04:54.410Z,5.29
2022-08-30T07:05:57.692Z,5.00
2022-08-30T07:07:00.975Z,4.67
2022-08-30T07:08:04.361Z,3.67
2022-08-30T07:09:07.430Z,3.00
2022-08-30T07:10:10.624Z,3.67
2022-08-30T07:11:13.906Z,4.00
2022-08-30T07:12:17.193Z,3.71
2022-08-30T07:13:20.393Z,4.67
2022-08-30T07:14:23.620Z,4.00
2022-08-30T07:15:26.839Z,4.14
2022-08-30T07:16:30.129Z,4.00
2022-08-30T07:17:34.946Z,4.43
2022-08-30T07:18:37.616Z,4.50
2022-08-30T07:19:40.794Z,4.33
2022-08-30T07:20:44.093Z,4.57
2022-08-30T07:21:47.466Z,3.57
2022-08-30T07:22:51.779Z,4.87
2022-08-30T07:23:55.319Z,5.00
2022-08-30T07:24:58.650Z,5.00
2022-08-30T07:26:02.178Z,4.57
2022-08-30T07:27:05.529Z,4.00
2022-08-30T07:28:08.616Z,4.00
2022-08-30T07:29:12.194Z,5.00
2022-08-30T07:30:15.383Z,4.57
2022-08-30T07:31:18.683Z,3.67
2022-08-30T07:32:22.930Z,4.50
2022-08-30T07:33:25.911Z,4.57
2022-08-30T07:34:29.229Z,4.67
2022-08-30T07:35:32.721Z,4.00
2022-08-30T07:36:36.107Z,4.43
2022-08-30T07:37:39.607Z,4.86
2022-08-30T07:38:42.980Z,4.57
2022-08-30T07:39:47.800Z,4.57
2022-08-30T07:40:50.787Z,3.87
2022-08-30T07:41:55.219Z,4.12
2022-08-30T07:42:58.487Z,4.14
2022-08-30T07:44:01.973Z,5.00
2022-08-30T07:45:05.310Z,5.00
2022-08-30T07:46:08.471Z,4.71
2022-08-30T07:47:11.942Z,4.57
2022-08-30T07:48:15.201Z,3.86
2022-08-30T07:49:18.334Z,4.00
2022-08-30T07:50:21.394Z,4.00
2022-08-30T07:51:24.545Z,4.00
2022-08-30T07:52:27.771Z,4.43
2022-08-30T07:53:31.930Z,4.50
2022-08-30T07:54:35.730Z,4.00
2022-08-30T07:55:39.213Z,4.00
2022-08-30T07:56:42.505Z,5.43
2022-08-30T07:57:46.092Z,4.71
2022-08-30T07:58:49.786Z,4.00
2022-08-30T07:59:53.070Z,4.00
2022-08-30T08:00:56.249Z,4.33
2022-08-30T08:01:59.675Z,4.50
2022-08-30T08:03:03.045Z,4.14
2022-08-30T08:04:06.422Z,4.29
2022-08-30T08:05:12.727Z,5.14
2022-08-30T08:06:14.063Z,4.00
2022-08-30T08:07:17.188Z,4.57
2022-08-30T08:08:20.470Z,4.43
2022-08-30T08:09:23.543Z,4.57
2022-08-30T08:10:26.688Z,4.43
2022-08-30T08:11:33.269Z,5.00
2022-08-30T08:12:34.122Z,5.29
2022-08-30T08:13:52.048Z,6.00
2022-08-30T08:14:41.707Z,7.00
2022-08-30T08:15:44.937Z,6.57
2022-08-30T08:16:48.177Z,5.14
2022-08-30T08:17:51.459Z,4.43
2022-08-30T08:18:54.650Z,7.29
2022-08-30T08:19:57.823Z,8.00
2022-08-30T08:21:01.031Z,5.67
2022-08-30T08:22:20.033Z,5.83
2022-08-30T08:23:08.358Z,7.37
2022-08-30T08:24:11.474Z,6.86
2022-08-30T08:25:14.722Z,5.29
2022-08-30T08:26:17.836Z,4.57
2022-08-30T08:27:21.019Z,4.29
2022-08-30T08:28:24.304Z,4.00
2022-08-30T08:29:27.487Z,3.67
2022-08-30T08:30:30.741Z,2.57
2022-08-30T08:31:34.083Z,2.33
2022-08-30T08:32:37.231Z,2.67
2022-08-30T08:33:40.516Z,2.33
2022-08-30T08:34:43.819Z,3.00
2022-08-30T08:35:47.398Z,2.67
2022-08-30T08:36:50.610Z,2.57
2022-08-30T08:37:53.779Z,2.57
2022-08-30T08:38:56.862Z,3.50
2022-08-30T08:40:00.467Z,3.00
2022-08-30T08:41:03.521Z,2.14
2022-08-30T08:42:06.598Z,1.00
2022-08-30T08:43:09.888Z,1.00
2022-08-30T08:44:13.062Z,1.43
2022-08-30T08:45:16.655Z,1.71
2022-08-30T08:46:20.386Z,1.00
2022-08-30T08:47:24.251Z,0.50
2022-08-30T08:48:32.101Z,0.00
2022-08-30T08:49:31.933Z,0.62
2022-08-30T08:50:35.419Z,2.00
2022-08-30T08:51:38.463Z,1.57
2022-08-30T08:52:41.480Z,1.00
2022-08-30T08:53:46.866Z,1.43
2022-08-30T08:54:48.978Z,1.50
2022-08-30T08:55:52.582Z,1.00
2022-08-30T08:56:55.971Z,1.43
2022-08-30T08:57:59.126Z,1.57
2022-08-30T08:59:02.271Z,1.00
2022-08-30T09:00:05.390Z,1.00
2022-08-30T09:01:08.506Z,1.00
2022-08-30T09:02:11.650Z,1.00
2022-08-30T09:03:14.828Z,1.33
2022-08-30T09:04:17.921Z,1.67
2022-08-30T09:05:22.325Z,1.00
2022-08-30T09:06:25.560Z,1.00
2022-08-30T09:07:28.994Z,1.00
2022-08-30T09:08:32.175Z,1.33
2022-08-30T09:09:35.528Z,2.00
2022-08-30T09:10:50.412Z,1.67
2022-08-30T09:11:44.376Z,1.50
2022-08-30T09:12:47.973Z,1.37
2022-08-30T09:13:51.265Z,1.43
2022-08-30T09:14:55.715Z,1.57
2022-08-30T09:15:59.995Z,1.00
2022-08-30T09:17:03.670Z,1.00
2022-08-30T09:18:06.964Z,1.29
2022-08-30T09:19:11.583Z,1.00
2022-08-30T09:20:14.651Z,0.71
2022-08-30T09:21:18.144Z,1.29
2022-08-30T09:22:21.628Z,1.57
2022-08-30T09:23:24.809Z,1.00
2022-08-30T09:24:28.212Z,1.14
2022-08-30T09:25:31.450Z,1.57
2022-08-30T09:26:35.261Z,1.50
2022-08-30T09:27:38.685Z,1.14
2022-08-30T09:28:41.945Z,1.43
2022-08-30T09:29:45.265Z,1.14
2022-08-30T09:30:48.642Z,0.43
2022-08-30T09:32:01.319Z,1.43
2022-08-30T09:32:56.430Z,2.00
2022-08-30T09:33:59.809Z,1.67
2022-08-30T09:35:04.323Z,2.00
2022-08-30T09:36:07.597Z,1.71
2022-08-30T09:37:10.985Z,1.57
2022-08-30T09:38:14.193Z,1.00
2022-08-30T09:39:17.973Z,1.25
2022-08-30T09:40:21.399Z,1.00
2022-08-30T09:41:24.439Z,1.00
2022-08-30T09:42:27.650Z,2.00
2022-08-30T09:43:31.269Z,1.67
2022-08-30T09:44:34.680Z,1.50
2022-08-30T09:45:38.186Z,1.43
2022-08-30T09:46:41.640Z,1.00
2022-08-30T09:47:45.053Z,1.43
2022-08-30T09:48:48.426Z,2.00
2022-08-30T09:49:51.939Z,2.43
2022-08-30T09:50:56.004Z,3.00
2022-08-30T09:51:59.860Z,2.37
2022-08-30T09:53:03.218Z,1.86
2022-08-30T09:54:17.236Z,2.00
2022-08-30T09:55:11.453Z,2.00
2022-08-30T09:56:14.610Z,1.86
2022-08-30T09:57:18.126Z,1.14
2022-08-30T09:58:21.309Z,1.71
2022-08-30T09:59:24.989Z,1.57
2022-08-30T10:00:29.184Z,1.00
2022-08-30T10:01:32.716Z,1.00
2022-08-30T10:02:36.062Z,1.29
2022-08-30T10:03:40.587Z,0.86
2022-08-30T10:04:43.642Z,0.00
2022-08-30T10:05:46.849Z,0.86
2022-08-30T10:06:50.008Z,1.00
2022-08-30T10:07:53.724Z,1.00
2022-08-30T10:08:57.200Z,1.00
2022-08-30T10:10:00.383Z,0.57
2022-08-30T10:11:03.864Z,0.43
2022-08-30T10:12:06.938Z,1.00
2022-08-30T10:13:10.347Z,1.00
2022-08-30T10:14:13.374Z,1.43
2022-08-30T10:15:16.647Z,1.57
2022-08-30T10:16:20.140Z,1.00
2022-08-30T10:17:23.697Z,1.00
2022-08-30T10:18:27.528Z,0.50
2022-08-30T10:19:30.845Z,1.57
2022-08-30T10:20:34.316Z,1.43
2022-08-30T10:21:37.625Z,1.57
2022-08-30T10:22:41.824Z,1.00
2022-08-30T10:23:45.284Z,0.57
2022-08-30T10:24:48.606Z,0.00
2022-08-30T10:25:52.298Z,0.33
2022-08-30T10:26:55.889Z,1.00
2022-08-30T10:28:07.778Z,0.00
2022-08-30T10:29:10.811Z,0.00
2022-08-30T10:30:13.939Z,1.00
2022-08-30T10:31:17.118Z,1.00
2022-08-30T10:32:20.311Z,0.57
2022-08-30T10:33:23.684Z,0.43
2022-08-30T10:34:28.011Z,1.00
2022-08-30T10:35:38.666Z,1.00
2022-08-30T10:36:38.554Z,1.00
2022-08-30T10:37:42.249Z,0.57
2022-08-30T10:38:45.848Z,0.43
2022-08-30T10:39:49.129Z,1.43
2022-08-30T10:40:52.415Z,1.67
2022-08-30T10:41:55.793Z,0.33
2022-08-30T10:43:00.408Z,0.88
2022-08-30T10:44:03.703Z,0.00
2022-08-30T10:45:07.195Z,0.43
2022-08-30T10:46:11.548Z,1.00
2022-08-30T10:47:18.571Z,0.67
2022-08-30T10:48:19.233Z,0.00
2022-08-30T10:49:22.470Z,0.29
2022-08-30T10:50:26.244Z,1.00
2022-08-30T10:51:29.342Z,0.57
2022-08-30T10:52:32.602Z,0.00
2022-08-30T10:53:35.940Z,0.00
2022-08-30T10:54:39.304Z,0.00
2022-08-30T10:55:44.100Z,0.00
2022-08-30T10:56:46.576Z,0.50
2022-08-30T10:57:49.769Z,1.00
2022-08-30T10:58:52.864Z,1.00
2022-08-30T10:59:56.030Z,1.00
2022-08-30T11:00:59.325Z,1.00
2022-08-30T11:02:02.409Z,1.00
2022-08-30T11:03:05.677Z,1.00
2022-08-30T11:04:08.729Z,0.57
2022-08-30T11:05:13.166Z,0.00
2022-08-30T11:06:16.307Z,0.43
2022-08-30T11:07:19.428Z,0.67
2022-08-30T11:08:22.947Z,0.00
2022-08-30T11:09:26.619Z,0.00
2022-08-30T11:10:29.897Z,0.00
2022-08-30T11:11:33.177Z,0.00
2022-08-30T11:12:36.275Z,0.00
2022-08-30T11:13:39.849Z,0.00
2022-08-30T11:14:43.300Z,0.43
2022-08-30T11:15:46.429Z,0.57
2022-08-30T11:16:50.109Z,0.00
2022-08-30T11:17:53.191Z,1.00
2022-08-30T11:18:56.476Z,0.57
2022-08-30T11:19:59.556Z,0.43
2022-08-30T11:21:02.843Z,0.71
2022-08-30T11:22:06.125Z,0.71
2022-08-30T11:23:09.484Z,0.14
2022-08-30T11:24:12.586Z,0.43
2022-08-30T11:25:16.077Z,0.00
2022-08-30T11:26:20.788Z,0.50
2022-08-30T11:27:24.590Z,1.00
2022-08-30T11:28:28.811Z,1.00
2022-08-30T11:29:32.083Z,0.43
2022-08-30T11:30:35.127Z,1.00
2022-08-30T11:31:39.789Z,0.50
2022-08-30T11:32:44.602Z,0.37
2022-08-30T11:33:47.882Z,1.00
2022-08-30T11:34:51.062Z,1.00
2022-08-30T11:35:54.100Z,1.00
2022-08-30T11:36:57.222Z,1.00
2022-08-30T11:38:00.272Z,0.71
2022-08-30T11:39:03.489Z,1.00
2022-08-30T11:40:06.511Z,0.67
2022-08-30T11:41:10.494Z,0.00
2022-08-30T11:42:14.079Z,0.50
2022-08-30T11:43:17.510Z,1.00
2022-08-30T11:44:20.620Z,0.57
2022-08-30T11:45:25.493Z,0.43
2022-08-30T11:46:28.114Z,0.50
2022-08-30T11:47:31.290Z,0.43
2022-08-30T11:48:35.606Z,1.00
2022-08-30T11:49:39.192Z,1.50
2022-08-30T11:50:45.295Z,1.67
2022-08-30T11:51:50.842Z,1.00
2022-08-30T11:52:51.298Z,0.50
2022-08-30T11:53:54.992Z,0.00
2022-08-30T11:54:58.289Z,1.00
2022-08-30T11:56:02.449Z,1.00
2022-08-30T11:57:05.865Z,1.00
2022-08-30T11:58:11.468Z,1.00
2022-08-30T11:59:13.263Z,1.00
2022-08-30T12:00:17.417Z,1.50
2022-08-30T12:01:42.253Z,2.00
2022-08-30T12:02:24.839Z,2.00
2022-08-30T12:03:29.262Z,1.87
2022-08-30T12:04:32.424Z,1.00
2022-08-30T12:05:35.826Z,0.57
2022-08-30T12:06:39.112Z,1.43
2022-08-30T12:07:43.324Z,1.50
2022-08-30T12:08:47.429Z,1.00
2022-08-30T12:09:50.925Z,1.00
2022-08-30T12:10:54.606Z,0.75
2022-08-30T12:11:58.778Z,0.88
2022-08-30T12:13:01.797Z,0.83
2022-08-30T12:14:08.195Z,1.00
2022-08-30T12:15:09.277Z,1.50
2022-08-30T12:16:12.495Z,1.57
2022-08-30T12:17:16.772Z,1.00
2022-08-30T12:18:20.250Z,1.00
2022-08-30T12:19:23.642Z,1.00
2022-08-30T12:20:26.828Z,1.00
2022-08-30T12:21:31.312Z,1.00
2022-08-30T12:22:34.314Z,1.50
2022-08-30T12:23:37.594Z,1.86
2022-08-30T12:24:42.010Z,1.50
2022-08-30T12:25:49.592Z,1.00
2022-08-30T12:26:52.980Z,1.50
2022-08-30T12:27:58.710Z,1.57
2022-08-30T12:29:00.783Z,1.00
2022-08-30T12:30:05.203Z,1.50
2022-08-30T12:31:08.679Z,1.00
2022-08-30T12:32:11.915Z,0.57
2022-08-30T12:33:15.054Z,0.43
2022-08-30T12:34:18.119Z,1.00
2022-08-30T12:35:22.426Z,1.50
2022-08-30T12:36:25.402Z,1.00
2022-08-30T12:37:29.703Z,1.00
2022-08-30T12:38:33.098Z,1.00
2022-08-30T12:39:36.588Z,1.00
2022-08-30T12:40:40.065Z,0.50
2022-08-30T12:41:43.987Z,0.43
2022-08-30T12:42:47.370Z,1.00
2022-08-30T12:43:50.755Z,1.00
2022-08-30T12:44:54.043Z,0.67
2022-08-30T12:45:57.315Z,0.29
2022-08-30T12:47:01.731Z,0.88
2022-08-30T12:48:06.152Z,1.00
2022-08-30T12:49:10.341Z,1.00
2022-08-30T12:50:15.269Z,0.57
2022-08-30T12:51:18.040Z,0.50
2022-08-30T12:52:21.332Z,0.57
2022-08-30T12:53:24.541Z,0.43
2022-08-30T12:54:27.478Z,0.57
2022-08-30T12:55:30.662Z,0.33
2022-08-30T12:56:49.540Z,1.43
2022-08-30T12:57:38.664Z,1.50
2022-08-30T12:58:42.054Z,1.00
2022-08-30T12:59:51.851Z,0.43
2022-08-30T13:00:50.053Z,1.00
2022-08-30T13:01:56.182Z,1.00
2022-08-30T13:02:58.379Z,1.00
2022-08-30T13:04:02.264Z,1.00
2022-08-30T13:05:05.851Z,1.00
2022-08-30T13:06:09.139Z,0.71
2022-08-30T13:07:12.428Z,1.43
2022-08-30T13:08:16.583Z,1.50
2022-08-30T13:09:21.471Z,0.14
2022-08-30T13:10:25.454Z,0.00
2022-08-30T13:11:29.598Z,0.43
2022-08-30T13:12:33.249Z,1.00
2022-08-30T13:13:39.410Z,1.57
2022-08-30T13:14:43.637Z,2.37
2022-08-30T13:15:47.401Z,2.00
2022-08-30T13:16:50.933Z,1.00
2022-08-30T13:17:54.291Z,0.43
2022-08-30T13:18:57.766Z,0.86
2022-08-30T13:20:04.128Z,0.57
2022-08-30T13:21:07.610Z,0.00
2022-08-30T13:22:10.891Z,0.43
2022-08-30T13:23:14.387Z,1.00
2022-08-30T13:24:20.383Z,1.50
2022-08-30T13:25:22.798Z,1.62
2022-08-30T13:26:26.487Z,1.12
2022-08-30T13:27:30.081Z,1.00
2022-08-30T13:28:34.512Z,0.50
2022-08-30T13:29:38.899Z,0.00
2022-08-30T13:30:42.389Z,0.50
2022-08-30T13:31:46.737Z,0.29
2022-08-30T13:32:50.801Z,0.50
2022-08-30T13:33:53.881Z,0.67
2022-08-30T13:34:57.164Z,0.33
2022-08-30T13:36:00.343Z,0.57
2022-08-30T13:37:03.632Z,0.00
2022-08-30T13:38:07.732Z,0.00
2022-08-30T13:39:10.809Z,0.00
2022-08-30T13:40:13.921Z,0.00
2022-08-30T13:41:16.969Z,0.17
2022-08-30T13:42:35.228Z,0.00
2022-08-30T13:43:24.359Z,0.50
2022-08-30T13:44:27.451Z,0.57
2022-08-30T13:45:45.451Z,0.50
2022-08-30T13:46:34.598Z,0.00
2022-08-30T13:47:37.757Z,0.00
2022-08-30T13:48:40.887Z,1.00
2022-08-30T13:49:44.305Z,0.57
2022-08-30T13:50:47.860Z,0.00
2022-08-30T13:52:18.468Z,0.00
2022-08-30T13:52:55.962Z,0.00
2022-08-30T13:53:59.053Z,0.00
2022-08-30T13:55:02.228Z,0.00
2022-08-30T13:56:06.532Z,0.00
2022-08-30T13:57:10.546Z,0.00
2022-08-30T13:58:13.913Z,1.00
2022-08-30T13:59:17.106Z,1.29
2022-08-30T14:00:20.079Z,1.00
2022-08-30T14:01:23.405Z,1.33
2022-08-30T14:02:27.579Z,2.50
2022-08-30T14:03:30.842Z,2.67
2022-08-30T14:04:33.990Z,1.67
2022-08-30T14:06:09.958Z,1.00